• Join FlightAware (Why Join?)
  • Login
  • US Flag 
12:18AM EDT


 

Airport Tracker/Info


-or-


 

Live Flight TrackerFlight Track Log ✈ EMD27 ✈ 01-May-2013 ✈ KBYL - KBNA

Flight Track Log - Related Links

Times and Time Zones

All times are in EDT time to prevent confusion due to time zone crossing. See the EMD27 flight status page for this flight to view local times or setup timezone preferences in your user account.

Time Position Orientation Groundspeed Altitude Reporting Facility
EDT Latitude Longitude Course Direction KTS MPH feet Rate Location/Type
10:57PM 36.8419 -84.2036 253° West 152 175 2,900  Level Indianapolis Center
10:58PM 36.8333 -84.2528 258° West 149 171 4,300 1,320 Climbing Indianapolis Center
10:59PM 36.8161 -84.3039 247° West 154 177 5,600 1,200 Climbing Indianapolis Center
11:00PM 36.8008 -84.3625 252° West 171 197 6,800 1,140 Climbing Indianapolis Center
11:01PM 36.7842 -84.4183 250° West 173 199 8,000 1,200 Climbing Indianapolis Center
11:02PM 36.6629 -84.6485 253° West  Level FlightAware Approximate
11:02PM 36.7667 -84.4853 252° West 173 199 9,300  Level Indianapolis Center
11:03PM 36.7489 -84.5475 250° West 185 213 10,000 300 Climbing Indianapolis Center
11:04PM 36.7278 -84.6208 250° West 218 251 10,000  Level Indianapolis Center
11:05PM 36.7058 -84.7000 251° West 239 275 10,000  Level Indianapolis Center
11:06PM 36.6819 -84.7806 250° West 247 284 10,000  Level Indianapolis Center
11:07PM 36.6600 -84.8622 252° West 249 287 10,000  Level Indianapolis Center
11:08PM 36.6361 -84.9419 250° West 248 285 10,000  Level Indianapolis Center
11:09PM 36.6136 -85.0219 251° West 247 284 10,000  Level Indianapolis Center
11:10PM 36.5908 -85.1014 250° West 245 282 10,000  Level Indianapolis Center
11:11PM 36.5681 -85.1811 250° West 245 282 10,000  Level Indianapolis Center
11:12PM 36.5392 -85.2775 250° West 248 285 10,000  Level Indianapolis Center
11:13PM 36.5161 -85.3572 250° West 247 284 10,000  Level Indianapolis Center
11:14PM 36.4931 -85.4381 250° West 249 287 10,000  Level Indianapolis Center
11:15PM 36.4697 -85.5181 250° West 248 285 10,000  Level Indianapolis Center
11:16PM 36.4469 -85.5981 251° West 246 283 10,000 -240 Level Indianapolis Center
11:17PM 36.4206 -85.6789 248° West 255 293 9,600 -900 Descending Memphis Center
11:18PM 36.3944 -85.7628 249° West 255 293 8,300 -840 Descending Memphis Center
11:19PM 36.3708 -85.8569 253° West 260 299 8,000 -180 Descending Memphis Center
11:20PM 36.3464 -85.9331 248° West 247 284 8,000  Level Memphis Center
11:21PM 36.3242 -86.0114 251° West 247 284 8,000  Level Memphis Center
11:22PM 36.3036 -86.0794 249° West 247 284 8,000  Level Memphis Center
11:23PM 36.2814 -86.1581 251° West 247 284 8,000  Level Memphis Center
11:24PM 36.2736 -86.2408 263° West 242 278 8,000 -180 Level Memphis Center
11:25PM 36.2658 -86.3208 263° West 242 278 7,700 -840 Descending Memphis Center
11:26PM 36.2519 -86.4092 259° West 242 278 6,400 -1,320 Descending Memphis Center
11:27PM 36.2406 -86.5075 262° West 258 297 5,100 -780 Descending Memphis Center
11:28PM 36.2344 -86.5850 264° West 242 278 4,900 -660 Descending Memphis Center
11:29PM 36.2239 -86.6419 257° West 210 242 3,800 -1,200 Descending Memphis Center
11:30PM 36.1847 -86.6567 197° South 146 168 2,500 -1,200 Descending Memphis Center
11:31PM 36.1536 -86.6683 197° South 134 154 1,400 -1,140 Descending Memphis Center
11:34PM 36.1167 -86.6667 253° West  Level FlightAware Approximate
11:41PM 36.1245 -86.6782 253° West  Level Estimated
11:42PM 36.1245 -86.6782 253° West  Level Estimated
11:43PM 36.1245 -86.6782 253° West  Level Estimated
11:44PM 36.1245 -86.6782 253° West  Level Estimated
11:45PM 36.1245 -86.6782 253° West  Level Estimated
11:46PM 36.1245 -86.6782 253° West  Level Estimated
11:47PM 36.1245 -86.6782 253° West  Level Estimated
11:48PM 36.1245 -86.6782 253° West  Level Estimated